sensor_id;sensor_type;location;lat;lon;timestamp;temperature;humidity
18794;DHT22;29610;49.022;12.114;2023-09-12T00:01:13;16.10;99.90
18794;DHT22;29610;49.022;12.114;2023-09-12T00:04:04;16.10;99.90
18794;DHT22;29610;49.022;12.114;2023-09-12T00:06:53;16.10;99.90
18794;DHT22;29610;49.022;12.114;2023-09-12T00:09:41;16.10;99.90
18794;DHT22;29610;49.022;12.114;2023-09-12T00:12:30;16.00;99.90
18794;DHT22;29610;49.022;12.114;2023-09-12T00:15:18;15.90;99.90
18794;DHT22;29610;49.022;12.114;2023-09-12T00:18:07;15.90;99.90
18794;DHT22;29610;49.022;12.114;2023-09-12T00:20:57;15.90;99.90
18794;DHT22;29610;49.022;12.114;2023-09-12T00:23:48;15.90;99.90
18794;DHT22;29610;49.022;12.114;2023-09-12T00:26:36;16.00;99.90
18794;DHT22;29610;49.022;12.114;2023-09-12T00:29:25;16.00;99.90
18794;DHT22;29610;49.022;12.114;2023-09-12T00:32:14;16.00;99.90
18794;DHT22;29610;49.022;12.114;2023-09-12T00:35:03;16.00;99.90
18794;DHT22;29610;49.022;12.114;2023-09-12T00:37:53;16.00;99.90
18794;DHT22;29610;49.022;12.114;2023-09-12T00:40:41;16.10;99.90
18794;DHT22;29610;49.022;12.114;2023-09-12T00:43:30;16.10;99.90
18794;DHT22;29610;49.022;12.114;2023-09-12T00:46:19;16.10;99.90
18794;DHT22;29610;49.022;12.114;2023-09-12T00:49:10;16.10;99.90
18794;DHT22;29610;49.022;12.114;2023-09-12T00:52:01;16.00;99.90
18794;DHT22;29610;49.022;12.114;2023-09-12T00:54:52;16.00;99.90
18794;DHT22;29610;49.022;12.114;2023-09-12T00:57:42;16.10;99.90
18794;DHT22;29610;49.022;12.114;2023-09-12T01:00:31;16.00;99.90
18794;DHT22;29610;49.022;12.114;2023-09-12T01:03:20;16.00;99.90
18794;DHT22;29610;49.022;12.114;2023-09-12T01:06:09;16.00;99.90
18794;DHT22;29610;49.022;12.114;2023-09-12T01:08:59;16.00;99.90
18794;DHT22;29610;49.022;12.114;2023-09-12T01:11:49;15.90;99.90
18794;DHT22;29610;49.022;12.114;2023-09-12T01:14:38;15.90;99.90
18794;DHT22;29610;49.022;12.114;2023-09-12T01:17:27;15.90;99.90
18794;DHT22;29610;49.022;12.114;2023-09-12T01:20:24;15.90;99.90
18794;DHT22;29610;49.022;12.114;2023-09-12T01:23:37;15.90;99.90
18794;DHT22;29610;49.022;12.114;2023-09-12T01:26:42;15.80;99.90
18794;DHT22;29610;49.022;12.114;2023-09-12T01:29:46;15.70;99.90
18794;DHT22;29610;49.022;12.114;2023-09-12T01:32:40;15.70;99.90
18794;DHT22;29610;49.022;12.114;2023-09-12T01:35:29;15.70;99.90
18794;DHT22;29610;49.022;12.114;2023-09-12T01:38:18;15.70;99.90
18794;DHT22;29610;49.022;12.114;2023-09-12T01:41:07;15.60;99.90
18794;DHT22;29610;49.022;12.114;2023-09-12T01:43:57;15.50;99.90
18794;DHT22;29610;49.022;12.114;2023-09-12T01:46:50;15.40;99.90
18794;DHT22;29610;49.022;12.114;2023-09-12T01:49:44;15.30;99.90
18794;DHT22;29610;49.022;12.114;2023-09-12T01:52:36;15.30;99.90
18794;DHT22;29610;49.022;12.114;2023-09-12T01:55:25;15.30;99.90
18794;DHT22;29610;49.022;12.114;2023-09-12T01:58:15;15.30;99.90
18794;DHT22;29610;49.022;12.114;2023-09-12T02:01:04;15.20;99.90
18794;DHT22;29610;49.022;12.114;2023-09-12T02:03:53;15.20;99.90
18794;DHT22;29610;49.022;12.114;2023-09-12T02:06:42;15.10;99.90
18794;DHT22;29610;49.022;12.114;2023-09-12T02:09:32;15.20;99.90
18794;DHT22;29610;49.022;12.114;2023-09-12T02:12:20;15.10;99.90
18794;DHT22;29610;49.022;12.114;2023-09-12T02:15:09;15.10;99.90
18794;DHT22;29610;49.022;12.114;2023-09-12T02:17:59;15.10;99.90
18794;DHT22;29610;49.022;12.114;2023-09-12T02:20:49;15.20;99.90
18794;DHT22;29610;49.022;12.114;2023-09-12T02:23:38;15.20;99.90
18794;DHT22;29610;49.022;12.114;2023-09-12T02:26:27;15.20;99.90
18794;DHT22;29610;49.022;12.114;2023-09-12T02:29:15;15.10;99.90
18794;DHT22;29610;49.022;12.114;2023-09-12T02:32:04;15.10;99.90
18794;DHT22;29610;49.022;12.114;2023-09-12T02:34:53;15.10;99.90
18794;DHT22;29610;49.022;12.114;2023-09-12T02:37:45;15.10;99.90
18794;DHT22;29610;49.022;12.114;2023-09-12T02:40:35;15.00;99.90
18794;DHT22;29610;49.022;12.114;2023-09-12T02:43:23;15.00;99.90
18794;DHT22;29610;49.022;12.114;2023-09-12T02:46:12;14.90;99.90
18794;DHT22;29610;49.022;12.114;2023-09-12T02:49:01;14.90;99.90
18794;DHT22;29610;49.022;12.114;2023-09-12T02:51:49;14.90;99.90
18794;DHT22;29610;49.022;12.114;2023-09-12T02:54:39;14.80;99.90
18794;DHT22;29610;49.022;12.114;2023-09-12T02:57:28;14.80;99.90
18794;DHT22;29610;49.022;12.114;2023-09-12T03:00:17;14.90;99.90
18794;DHT22;29610;49.022;12.114;2023-09-12T03:03:07;14.80;99.90
18794;DHT22;29610;49.022;12.114;2023-09-12T03:05:58;14.80;99.90
18794;DHT22;29610;49.022;12.114;2023-09-12T03:08:47;14.70;99.90
18794;DHT22;29610;49.022;12.114;2023-09-12T03:11:37;14.90;99.90
18794;DHT22;29610;49.022;12.114;2023-09-12T03:14:27;14.70;99.90
18794;DHT22;29610;49.022;12.114;2023-09-12T03:17:16;14.70;99.90
18794;DHT22;29610;49.022;12.114;2023-09-12T03:20:05;14.60;99.90
18794;DHT22;29610;49.022;12.114;2023-09-12T03:22:56;14.60;99.90
18794;DHT22;29610;49.022;12.114;2023-09-12T03:25:44;14.70;99.90
18794;DHT22;29610;49.022;12.114;2023-09-12T03:28:35;14.60;99.90
18794;DHT22;29610;49.022;12.114;2023-09-12T03:31:25;14.60;99.90
18794;DHT22;29610;49.022;12.114;2023-09-12T03:34:13;14.60;99.90
18794;DHT22;29610;49.022;12.114;2023-09-12T03:37:02;14.60;99.90
18794;DHT22;29610;49.022;12.114;2023-09-12T03:39:51;14.60;99.90
18794;DHT22;29610;49.022;12.114;2023-09-12T03:42:40;14.60;99.90
18794;DHT22;29610;49.022;12.114;2023-09-12T03:45:31;14.60;99.90
18794;DHT22;29610;49.022;12.114;2023-09-12T03:48:19;14.60;99.90
18794;DHT22;29610;49.022;12.114;2023-09-12T03:51:08;14.60;99.90
18794;DHT22;29610;49.022;12.114;2023-09-12T03:53:57;14.70;99.90
18794;DHT22;29610;49.022;12.114;2023-09-12T03:56:45;14.70;99.90
18794;DHT22;29610;49.022;12.114;2023-09-12T03:59:34;14.60;99.90
18794;DHT22;29610;49.022;12.114;2023-09-12T04:02:24;14.60;99.90
18794;DHT22;29610;49.022;12.114;2023-09-12T04:05:14;14.60;99.90
18794;DHT22;29610;49.022;12.114;2023-09-12T04:08:03;14.60;99.90
18794;DHT22;29610;49.022;12.114;2023-09-12T04:10:52;14.60;99.90
18794;DHT22;29610;49.022;12.114;2023-09-12T04:13:40;14.60;99.90
18794;DHT22;29610;49.022;12.114;2023-09-12T04:16:31;14.80;99.90
18794;DHT22;29610;49.022;12.114;2023-09-12T04:19:22;14.50;99.90
18794;DHT22;29610;49.022;12.114;2023-09-12T04:22:11;14.50;99.90
18794;DHT22;29610;49.022;12.114;2023-09-12T04:24:59;14.40;99.90
18794;DHT22;29610;49.022;12.114;2023-09-12T04:27:48;14.20;99.90
18794;DHT22;29610;49.022;12.114;2023-09-12T04:30:37;14.10;99.90
18794;DHT22;29610;49.022;12.114;2023-09-12T04:33:27;14.00;99.90
18794;DHT22;29610;49.022;12.114;2023-09-12T04:36:17;14.00;99.90
18794;DHT22;29610;49.022;12.114;2023-09-12T04:39:06;14.00;99.90
18794;DHT22;29610;49.022;12.114;2023-09-12T04:41:56;13.90;99.90
18794;DHT22;29610;49.022;12.114;2023-09-12T04:44:45;13.90;99.90
18794;DHT22;29610;49.022;12.114;2023-09-12T04:47:34;13.90;99.90
18794;DHT22;29610;49.022;12.114;2023-09-12T04:50:23;13.90;99.90
18794;DHT22;29610;49.022;12.114;2023-09-12T04:53:13;13.90;99.90
18794;DHT22;29610;49.022;12.114;2023-09-12T04:56:02;13.90;99.90
18794;DHT22;29610;49.022;12.114;2023-09-12T04:58:51;14.00;99.90
18794;DHT22;29610;49.022;12.114;2023-09-12T05:01:39;14.10;99.90
18794;DHT22;29610;49.022;12.114;2023-09-12T05:04:28;14.20;99.90
18794;DHT22;29610;49.022;12.114;2023-09-12T05:07:17;14.20;99.90
18794;DHT22;29610;49.022;12.114;2023-09-12T05:10:07;14.30;99.90
18794;DHT22;29610;49.022;12.114;2023-09-12T05:12:56;14.40;99.90
18794;DHT22;29610;49.022;12.114;2023-09-12T05:15:46;14.50;99.90
18794;DHT22;29610;49.022;12.114;2023-09-12T05:18:35;14.60;99.90
18794;DHT22;29610;49.022;12.114;2023-09-12T05:21:23;14.70;99.90
18794;DHT22;29610;49.022;12.114;2023-09-12T05:24:12;14.70;99.90
18794;DHT22;29610;49.022;12.114;2023-09-12T05:27:03;14.80;99.90
18794;DHT22;29610;49.022;12.114;2023-09-12T05:29:52;14.80;99.90
18794;DHT22;29610;49.022;12.114;2023-09-12T05:32:41;14.90;99.90
18794;DHT22;29610;49.022;12.114;2023-09-12T05:35:30;15.00;99.90
18794;DHT22;29610;49.022;12.114;2023-09-12T05:38:19;15.10;99.90
18794;DHT22;29610;49.022;12.114;2023-09-12T05:41:07;15.20;99.90
18794;DHT22;29610;49.022;12.114;2023-09-12T05:43:57;15.30;99.90
18794;DHT22;29610;49.022;12.114;2023-09-12T05:46:46;15.40;99.90
18794;DHT22;29610;49.022;12.114;2023-09-12T05:49:36;15.40;99.90
18794;DHT22;29610;49.022;12.114;2023-09-12T05:52:24;15.50;99.90
18794;DHT22;29610;49.022;12.114;2023-09-12T05:55:13;15.50;99.90
18794;DHT22;29610;49.022;12.114;2023-09-12T05:58:03;15.60;99.90
18794;DHT22;29610;49.022;12.114;2023-09-12T06:00:56;15.70;99.90
18794;DHT22;29610;49.022;12.114;2023-09-12T06:03:45;15.80;99.90
18794;DHT22;29610;49.022;12.114;2023-09-12T06:06:33;15.90;99.90
18794;DHT22;29610;49.022;12.114;2023-09-12T06:09:23;16.00;99.90
18794;DHT22;29610;49.022;12.114;2023-09-12T06:12:11;16.20;99.90
18794;DHT22;29610;49.022;12.114;2023-09-12T06:15:00;16.40;99.90
18794;DHT22;29610;49.022;12.114;2023-09-12T06:17:51;16.10;99.90
18794;DHT22;29610;49.022;12.114;2023-09-12T06:20:41;17.10;99.90
18794;DHT22;29610;49.022;12.114;2023-09-12T06:23:30;17.30;99.90
18794;DHT22;29610;49.022;12.114;2023-09-12T06:26:21;17.50;99.90
18794;DHT22;29610;49.022;12.114;2023-09-12T06:29:09;17.70;99.90
18794;DHT22;29610;49.022;12.114;2023-09-12T06:31:58;18.00;99.90
18794;DHT22;29610;49.022;12.114;2023-09-12T06:34:48;18.20;99.90
18794;DHT22;29610;49.022;12.114;2023-09-12T06:37:37;18.30;99.90
18794;DHT22;29610;49.022;12.114;2023-09-12T06:40:26;18.40;99.90
18794;DHT22;29610;49.022;12.114;2023-09-12T06:43:15;18.70;99.90
18794;DHT22;29610;49.022;12.114;2023-09-12T06:46:03;18.80;99.90
18794;DHT22;29610;49.022;12.114;2023-09-12T06:48:52;19.00;99.90
18794;DHT22;29610;49.022;12.114;2023-09-12T06:51:42;19.10;99.90
18794;DHT22;29610;49.022;12.114;2023-09-12T06:54:31;19.20;99.90
18794;DHT22;29610;49.022;12.114;2023-09-12T06:57:20;19.20;99.90
18794;DHT22;29610;49.022;12.114;2023-09-12T07:00:10;19.50;99.90
18794;DHT22;29610;49.022;12.114;2023-09-12T07:02:59;19.40;99.90
18794;DHT22;29610;49.022;12.114;2023-09-12T07:05:48;19.60;99.90
18794;DHT22;29610;49.022;12.114;2023-09-12T07:08:38;19.70;99.90
18794;DHT22;29610;49.022;12.114;2023-09-12T07:11:27;19.90;99.90
18794;DHT22;29610;49.022;12.114;2023-09-12T07:14:15;20.00;99.90
18794;DHT22;29610;49.022;12.114;2023-09-12T07:17:06;20.00;99.90
18794;DHT22;29610;49.022;12.114;2023-09-12T07:19:54;20.10;99.90
18794;DHT22;29610;49.022;12.114;2023-09-12T07:22:43;20.20;99.90
18794;DHT22;29610;49.022;12.114;2023-09-12T07:25:37;20.30;99.90
18794;DHT22;29610;49.022;12.114;2023-09-12T07:28:27;20.40;99.90
18794;DHT22;29610;49.022;12.114;2023-09-12T07:31:17;20.50;99.90
18794;DHT22;29610;49.022;12.114;2023-09-12T07:34:06;20.50;99.90
18794;DHT22;29610;49.022;12.114;2023-09-12T07:36:55;20.60;99.90
18794;DHT22;29610;49.022;12.114;2023-09-12T07:39:44;20.70;99.90
18794;DHT22;29610;49.022;12.114;2023-09-12T07:42:34;20.70;99.90
18794;DHT22;29610;49.022;12.114;2023-09-12T07:45:23;20.80;99.90
18794;DHT22;29610;49.022;12.114;2023-09-12T07:48:11;20.90;99.90
18794;DHT22;29610;49.022;12.114;2023-09-12T07:51:00;20.90;99.90
18794;DHT22;29610;49.022;12.114;2023-09-12T07:53:49;21.00;99.90
18794;DHT22;29610;49.022;12.114;2023-09-12T07:56:38;21.10;99.90
18794;DHT22;29610;49.022;12.114;2023-09-12T07:59:28;21.30;99.90
18794;DHT22;29610;49.022;12.114;2023-09-12T08:02:16;21.30;99.90
18794;DHT22;29610;49.022;12.114;2023-09-12T08:05:05;21.40;99.90
18794;DHT22;29610;49.022;12.114;2023-09-12T08:07:55;21.50;99.90
18794;DHT22;29610;49.022;12.114;2023-09-12T08:10:43;21.50;99.90
18794;DHT22;29610;49.022;12.114;2023-09-12T08:13:33;21.50;99.90
18794;DHT22;29610;49.022;12.114;2023-09-12T08:16:23;21.60;99.90
18794;DHT22;29610;49.022;12.114;2023-09-12T08:19:11;21.70;99.90
18794;DHT22;29610;49.022;12.114;2023-09-12T08:22:04;21.70;99.90
18794;DHT22;29610;49.022;12.114;2023-09-12T08:24:54;21.90;99.90
18794;DHT22;29610;49.022;12.114;2023-09-12T08:27:42;21.80;99.90
18794;DHT22;29610;49.022;12.114;2023-09-12T08:30:31;21.90;99.90
18794;DHT22;29610;49.022;12.114;2023-09-12T08:33:21;22.00;99.90
18794;DHT22;29610;49.022;12.114;2023-09-12T08:36:13;22.20;99.90
18794;DHT22;29610;49.022;12.114;2023-09-12T08:39:01;22.30;99.90
18794;DHT22;29610;49.022;12.114;2023-09-12T08:41:51;22.40;99.90
18794;DHT22;29610;49.022;12.114;2023-09-12T08:44:40;22.40;99.90
18794;DHT22;29610;49.022;12.114;2023-09-12T08:47:30;22.40;99.90
18794;DHT22;29610;49.022;12.114;2023-09-12T08:50:22;22.50;99.90
18794;DHT22;29610;49.022;12.114;2023-09-12T08:53:11;22.60;99.90
18794;DHT22;29610;49.022;12.114;2023-09-12T08:56:00;22.70;99.90
18794;DHT22;29610;49.022;12.114;2023-09-12T08:58:51;22.90;99.90
18794;DHT22;29610;49.022;12.114;2023-09-12T09:01:42;23.00;99.90
18794;DHT22;29610;49.022;12.114;2023-09-12T09:04:33;23.00;99.90
18794;DHT22;29610;49.022;12.114;2023-09-12T09:07:25;23.10;99.90
18794;DHT22;29610;49.022;12.114;2023-09-12T09:10:17;23.30;99.90
18794;DHT22;29610;49.022;12.114;2023-09-12T09:13:24;23.50;99.90
18794;DHT22;29610;49.022;12.114;2023-09-12T09:16:14;23.60;99.90
18794;DHT22;29610;49.022;12.114;2023-09-12T09:19:05;23.70;99.90
18794;DHT22;29610;49.022;12.114;2023-09-12T09:22:05;23.80;99.90
18794;DHT22;29610;49.022;12.114;2023-09-12T09:25:09;24.00;99.90
18794;DHT22;29610;49.022;12.114;2023-09-12T09:28:03;24.00;99.90
18794;DHT22;29610;49.022;12.114;2023-09-12T09:30:52;24.10;99.90
18794;DHT22;29610;49.022;12.114;2023-09-12T09:33:42;24.20;99.90
18794;DHT22;29610;49.022;12.114;2023-09-12T09:36:36;24.30;99.90
18794;DHT22;29610;49.022;12.114;2023-09-12T09:39:27;24.40;99.90
18794;DHT22;29610;49.022;12.114;2023-09-12T09:42:18;24.60;99.90
18794;DHT22;29610;49.022;12.114;2023-09-12T09:45:07;24.70;99.90
18794;DHT22;29610;49.022;12.114;2023-09-12T09:47:57;24.80;99.90
18794;DHT22;29610;49.022;12.114;2023-09-12T09:50:47;24.90;99.90
18794;DHT22;29610;49.022;12.114;2023-09-12T09:53:36;25.00;99.90
18794;DHT22;29610;49.022;12.114;2023-09-12T09:56:25;25.20;99.90
18794;DHT22;29610;49.022;12.114;2023-09-12T09:59:16;25.30;99.90
18794;DHT22;29610;49.022;12.114;2023-09-12T10:02:09;25.50;99.90
18794;DHT22;29610;49.022;12.114;2023-09-12T10:05:08;25.60;99.90
18794;DHT22;29610;49.022;12.114;2023-09-12T10:07:58;25.80;99.90
18794;DHT22;29610;49.022;12.114;2023-09-12T10:10:49;25.90;99.90
18794;DHT22;29610;49.022;12.114;2023-09-12T10:13:41;26.00;99.10
18794;DHT22;29610;49.022;12.114;2023-09-12T10:16:39;26.10;99.30
18794;DHT22;29610;49.022;12.114;2023-09-12T10:19:37;26.20;98.40
18794;DHT22;29610;49.022;12.114;2023-09-12T10:22:34;26.40;98.90
18794;DHT22;29610;49.022;12.114;2023-09-12T10:25:28;26.70;97.70
18794;DHT22;29610;49.022;12.114;2023-09-12T10:28:18;27.10;97.30
18794;DHT22;29610;49.022;12.114;2023-09-12T10:31:08;27.20;96.60
18794;DHT22;29610;49.022;12.114;2023-09-12T10:34:01;27.30;96.20
18794;DHT22;29610;49.022;12.114;2023-09-12T10:36:55;27.40;95.90
18794;DHT22;29610;49.022;12.114;2023-09-12T10:39:48;27.60;97.10
18794;DHT22;29610;49.022;12.114;2023-09-12T10:42:39;27.80;95.10
18794;DHT22;29610;49.022;12.114;2023-09-12T10:45:28;28.10;96.20
18794;DHT22;29610;49.022;12.114;2023-09-12T10:48:19;28.60;95.40
18794;DHT22;29610;49.022;12.114;2023-09-12T10:51:10;29.00;93.70
18794;DHT22;29610;49.022;12.114;2023-09-12T10:54:01;29.50;92.50
18794;DHT22;29610;49.022;12.114;2023-09-12T10:57:02;29.60;92.80
18794;DHT22;29610;49.022;12.114;2023-09-12T11:00:11;29.80;92.80
18794;DHT22;29610;49.022;12.114;2023-09-12T11:03:36;29.90;91.60
18794;DHT22;29610;49.022;12.114;2023-09-12T11:06:30;30.20;91.50
18794;DHT22;29610;49.022;12.114;2023-09-12T11:09:22;30.30;90.60
18794;DHT22;29610;49.022;12.114;2023-09-12T11:12:36;30.50;90.00
18794;DHT22;29610;49.022;12.114;2023-09-12T11:15:26;30.50;87.50
18794;DHT22;29610;49.022;12.114;2023-09-12T11:18:16;30.40;89.30
18794;DHT22;29610;49.022;12.114;2023-09-12T11:21:05;30.50;89.80
18794;DHT22;29610;49.022;12.114;2023-09-12T11:23:56;30.90;90.10
18794;DHT22;29610;49.022;12.114;2023-09-12T11:26:56;30.70;86.50
18794;DHT22;29610;49.022;12.114;2023-09-12T11:29:46;30.80;89.70
18794;DHT22;29610;49.022;12.114;2023-09-12T11:32:36;31.30;87.20
18794;DHT22;29610;49.022;12.114;2023-09-12T11:35:26;31.80;83.00
18794;DHT22;29610;49.022;12.114;2023-09-12T11:38:26;31.90;83.00
18794;DHT22;29610;49.022;12.114;2023-09-12T11:41:39;32.10;83.80
18794;DHT22;29610;49.022;12.114;2023-09-12T11:44:28;32.40;82.30
18794;DHT22;29610;49.022;12.114;2023-09-12T11:47:18;32.20;81.20
18794;DHT22;29610;49.022;12.114;2023-09-12T11:50:09;32.30;81.10
18794;DHT22;29610;49.022;12.114;2023-09-12T11:53:13;32.40;84.10
18794;DHT22;29610;49.022;12.114;2023-09-12T11:56:02;32.70;80.90
18794;DHT22;29610;49.022;12.114;2023-09-12T11:58:53;32.80;76.30
18794;DHT22;29610;49.022;12.114;2023-09-12T12:01:42;32.50;78.90
18794;DHT22;29610;49.022;12.114;2023-09-12T12:04:31;32.90;79.10
18794;DHT22;29610;49.022;12.114;2023-09-12T12:07:22;32.40;73.10
18794;DHT22;29610;49.022;12.114;2023-09-12T12:10:10;32.10;79.60
18794;DHT22;29610;49.022;12.114;2023-09-12T12:12:59;32.70;79.60
18794;DHT22;29610;49.022;12.114;2023-09-12T12:15:49;32.70;76.70
18794;DHT22;29610;49.022;12.114;2023-09-12T12:18:37;32.70;80.50
18794;DHT22;29610;49.022;12.114;2023-09-12T12:21:27;32.60;75.90
18794;DHT22;29610;49.022;12.114;2023-09-12T12:24:16;32.70;75.70
18794;DHT22;29610;49.022;12.114;2023-09-12T12:27:05;32.70;76.70
18794;DHT22;29610;49.022;12.114;2023-09-12T12:29:55;32.80;78.00
18794;DHT22;29610;49.022;12.114;2023-09-12T12:32:46;32.60;77.20
18794;DHT22;29610;49.022;12.114;2023-09-12T12:35:36;32.70;74.50
18794;DHT22;29610;49.022;12.114;2023-09-12T12:38:39;32.20;76.70
18794;DHT22;29610;49.022;12.114;2023-09-12T12:41:52;31.90;74.40
18794;DHT22;29610;49.022;12.114;2023-09-12T12:44:41;31.50;80.10
18794;DHT22;29610;49.022;12.114;2023-09-12T12:47:30;31.40;79.20
18794;DHT22;29610;49.022;12.114;2023-09-12T12:50:22;31.70;78.60
18794;DHT22;29610;49.022;12.114;2023-09-12T12:53:11;31.90;75.60
18794;DHT22;29610;49.022;12.114;2023-09-12T12:56:00;31.30;74.20
18794;DHT22;29610;49.022;12.114;2023-09-12T12:58:50;31.30;76.30
18794;DHT22;29610;49.022;12.114;2023-09-12T13:01:39;31.60;74.50
18794;DHT22;29610;49.022;12.114;2023-09-12T13:04:35;31.80;74.50
18794;DHT22;29610;49.022;12.114;2023-09-12T13:07:27;32.30;67.70
18794;DHT22;29610;49.022;12.114;2023-09-12T13:10:15;32.10;66.10
18794;DHT22;29610;49.022;12.114;2023-09-12T13:13:04;32.30;65.70
18794;DHT22;29610;49.022;12.114;2023-09-12T13:15:52;32.10;67.70
18794;DHT22;29610;49.022;12.114;2023-09-12T13:18:41;31.80;66.80
18794;DHT22;29610;49.022;12.114;2023-09-12T13:21:30;31.70;67.00
18794;DHT22;29610;49.022;12.114;2023-09-12T13:24:20;31.50;69.10
18794;DHT22;29610;49.022;12.114;2023-09-12T13:27:10;31.30;70.00
18794;DHT22;29610;49.022;12.114;2023-09-12T13:29:58;31.50;71.30
18794;DHT22;29610;49.022;12.114;2023-09-12T13:32:47;31.80;66.90
18794;DHT22;29610;49.022;12.114;2023-09-12T13:35:36;31.80;69.20
18794;DHT22;29610;49.022;12.114;2023-09-12T13:38:24;32.10;69.30
18794;DHT22;29610;49.022;12.114;2023-09-12T13:41:14;32.30;66.00
18794;DHT22;29610;49.022;12.114;2023-09-12T13:44:03;32.40;63.60
18794;DHT22;29610;49.022;12.114;2023-09-12T13:46:52;32.20;67.00
18794;DHT22;29610;49.022;12.114;2023-09-12T13:49:41;32.10;64.10
18794;DHT22;29610;49.022;12.114;2023-09-12T13:52:29;31.90;64.40
18794;DHT22;29610;49.022;12.114;2023-09-12T13:55:18;31.80;64.80
18794;DHT22;29610;49.022;12.114;2023-09-12T13:58:28;32.00;64.20
18794;DHT22;29610;49.022;12.114;2023-09-12T14:01:32;32.00;68.30
18794;DHT22;29610;49.022;12.114;2023-09-12T14:04:21;31.90;66.30
18794;DHT22;29610;49.022;12.114;2023-09-12T14:07:11;31.90;71.00
18794;DHT22;29610;49.022;12.114;2023-09-12T14:10:00;31.70;68.30
18794;DHT22;29610;49.022;12.114;2023-09-12T14:12:50;31.50;68.70
18794;DHT22;29610;49.022;12.114;2023-09-12T14:15:41;31.40;68.10
18794;DHT22;29610;49.022;12.114;2023-09-12T14:18:29;31.40;66.00
18794;DHT22;29610;49.022;12.114;2023-09-12T14:21:19;31.40;67.80
18794;DHT22;29610;49.022;12.114;2023-09-12T14:24:08;31.30;68.60
18794;DHT22;29610;49.022;12.114;2023-09-12T14:26:57;30.90;69.40
18794;DHT22;29610;49.022;12.114;2023-09-12T14:29:47;30.80;68.60
18794;DHT22;29610;49.022;12.114;2023-09-12T14:32:39;30.60;66.20
18794;DHT22;29610;49.022;12.114;2023-09-12T14:35:28;30.40;68.00
18794;DHT22;29610;49.022;12.114;2023-09-12T14:38:16;30.10;71.00
18794;DHT22;29610;49.022;12.114;2023-09-12T14:41:05;30.10;74.10
18794;DHT22;29610;49.022;12.114;2023-09-12T14:43:53;30.10;76.30
18794;DHT22;29610;49.022;12.114;2023-09-12T14:46:42;29.70;73.10
18794;DHT22;29610;49.022;12.114;2023-09-12T14:49:32;29.60;77.10
18794;DHT22;29610;49.022;12.114;2023-09-12T14:52:34;29.60;75.90
18794;DHT22;29610;49.022;12.114;2023-09-12T14:55:23;29.40;76.20
18794;DHT22;29610;49.022;12.114;2023-09-12T14:58:12;29.10;76.30
18794;DHT22;29610;49.022;12.114;2023-09-12T15:01:00;29.00;76.50
18794;DHT22;29610;49.022;12.114;2023-09-12T15:03:53;28.70;76.70
18794;DHT22;29610;49.022;12.114;2023-09-12T15:06:44;28.70;78.70
18794;DHT22;29610;49.022;12.114;2023-09-12T15:09:32;28.60;80.50
18794;DHT22;29610;49.022;12.114;2023-09-12T15:12:21;28.40;79.60
18794;DHT22;29610;49.022;12.114;2023-09-12T15:15:11;28.20;79.00
18794;DHT22;29610;49.022;12.114;2023-09-12T15:17:59;28.10;80.80
18794;DHT22;29610;49.022;12.114;2023-09-12T15:20:49;28.10;81.60
18794;DHT22;29610;49.022;12.114;2023-09-12T15:23:40;28.00;82.70
18794;DHT22;29610;49.022;12.114;2023-09-12T15:26:30;27.90;82.10
18794;DHT22;29610;49.022;12.114;2023-09-12T15:29:18;27.80;81.50
18794;DHT22;29610;49.022;12.114;2023-09-12T15:32:07;27.70;82.70
18794;DHT22;29610;49.022;12.114;2023-09-12T15:34:56;27.60;83.60
18794;DHT22;29610;49.022;12.114;2023-09-12T15:37:46;27.50;84.10
18794;DHT22;29610;49.022;12.114;2023-09-12T15:40:37;27.40;84.10
18794;DHT22;29610;49.022;12.114;2023-09-12T15:43:25;27.40;83.10
18794;DHT22;29610;49.022;12.114;2023-09-12T15:46:14;27.30;83.50
18794;DHT22;29610;49.022;12.114;2023-09-12T15:49:21;27.30;83.10
18794;DHT22;29610;49.022;12.114;2023-09-12T15:52:09;27.30;84.70
18794;DHT22;29610;49.022;12.114;2023-09-12T15:54:58;27.20;84.00
18794;DHT22;29610;49.022;12.114;2023-09-12T15:57:48;27.00;83.70
18794;DHT22;29610;49.022;12.114;2023-09-12T16:00:36;27.00;83.80
18794;DHT22;29610;49.022;12.114;2023-09-12T16:03:25;26.90;85.60
18794;DHT22;29610;49.022;12.114;2023-09-12T16:06:15;26.80;86.20
18794;DHT22;29610;49.022;12.114;2023-09-12T16:09:04;26.70;85.30
18794;DHT22;29610;49.022;12.114;2023-09-12T16:11:53;26.70;85.60
18794;DHT22;29610;49.022;12.114;2023-09-12T16:14:43;26.70;85.80
18794;DHT22;29610;49.022;12.114;2023-09-12T16:17:32;27.50;86.20
18794;DHT22;29610;49.022;12.114;2023-09-12T16:20:21;26.60;86.70
18794;DHT22;29610;49.022;12.114;2023-09-12T16:23:10;26.60;86.30
18794;DHT22;29610;49.022;12.114;2023-09-12T16:26:00;26.50;87.40
18794;DHT22;29610;49.022;12.114;2023-09-12T16:28:49;26.40;87.20
18794;DHT22;29610;49.022;12.114;2023-09-12T16:31:39;26.30;87.90
18794;DHT22;29610;49.022;12.114;2023-09-12T16:34:28;26.20;88.20
18794;DHT22;29610;49.022;12.114;2023-09-12T16:37:17;26.00;88.90
18794;DHT22;29610;49.022;12.114;2023-09-12T16:40:09;25.80;89.30
18794;DHT22;29610;49.022;12.114;2023-09-12T16:42:59;25.70;89.70
18794;DHT22;29610;49.022;12.114;2023-09-12T16:45:48;25.50;90.00
18794;DHT22;29610;49.022;12.114;2023-09-12T16:48:38;25.40;90.30
18794;DHT22;29610;49.022;12.114;2023-09-12T16:51:28;25.20;90.20
18794;DHT22;29610;49.022;12.114;2023-09-12T16:54:17;25.00;90.20
18794;DHT22;29610;49.022;12.114;2023-09-12T16:57:05;25.00;90.60
18794;DHT22;29610;49.022;12.114;2023-09-12T16:59:59;24.90;90.60
18794;DHT22;29610;49.022;12.114;2023-09-12T17:02:48;24.70;91.10
18794;DHT22;29610;49.022;12.114;2023-09-12T17:05:39;24.70;91.00
18794;DHT22;29610;49.022;12.114;2023-09-12T17:08:27;24.50;90.90
18794;DHT22;29610;49.022;12.114;2023-09-12T17:11:16;24.40;91.40
18794;DHT22;29610;49.022;12.114;2023-09-12T17:14:07;24.20;91.60
18794;DHT22;29610;49.022;12.114;2023-09-12T17:16:55;24.00;91.90
18794;DHT22;29610;49.022;12.114;2023-09-12T17:19:45;23.90;92.20
18794;DHT22;29610;49.022;12.114;2023-09-12T17:22:35;23.80;92.30
18794;DHT22;29610;49.022;12.114;2023-09-12T17:25:23;23.80;92.10
18794;DHT22;29610;49.022;12.114;2023-09-12T17:28:12;23.80;92.10
18794;DHT22;29610;49.022;12.114;2023-09-12T17:31:01;23.80;92.40
18794;DHT22;29610;49.022;12.114;2023-09-12T17:33:50;23.70;92.40
18794;DHT22;29610;49.022;12.114;2023-09-12T17:36:39;23.70;92.40
18794;DHT22;29610;49.022;12.114;2023-09-12T17:39:29;23.70;92.30